Bahia Tres — EADC — position and weather

sailwx.info

Track history (hours):
 
Tides and Currents Weather Stations Pressure Air Temp Water Temp Dewpoint Dewpoint Depression Visibility Wind Speed Wind Dir Waves Ship Positions

Bahia Tres

Last reported at 2018-May-27 03:28 UTC. Time now 2018-May-27 03:28 UTC.
Position N 37°57' W 008°53'.

Length 100 m; draft 5.8 m.

Type: Tanker. MMSI: 224994000.

Date/timePositionNaut miles runAvg speedWind from/ knotsBaromVisibWave heightAir tempDewpointWater temp
2018-May-27 03:28N 37°57' W 008°53'0 0.0
2018-May-27 02:58N 37°57' W 008°53'0 0.0
2018-May-27 02:28N 37°57' W 008°53'0 0.0
2018-May-27 01:58N 37°57' W 008°53'0 0.0
2018-May-27 01:28N 37°57' W 008°53'0 0.0
2018-May-27 00:58N 37°57' W 008°53'0 0.0
2018-May-27 00:28N 37°57' W 008°53'0 0.0
2018-May-26 23:58N 37°57' W 008°53'0 0.0
2018-May-26 23:28N 37°57' W 008°53'0 0.0
2018-May-26 22:58N 37°57' W 008°53'0 0.0
2018-May-26 22:28N 37°57' W 008°53'0 0.0
2018-May-26 21:58N 37°57' W 008°53'0 0.0
2018-May-26 21:28N 37°57' W 008°53'0 0.0
2018-May-26 20:58N 37°57' W 008°53'0 0.0
2018-May-26 20:25N 37°57' W 008°53'0 0.0
2018-May-26 19:58N 37°57' W 008°53'0 0.0
2018-May-26 19:28N 37°57' W 008°53'0 0.0
2018-May-26 18:58N 37°57' W 008°53'0 0.0
2018-May-26 18:28N 37°57' W 008°53'0 0.0
2018-May-26 17:58N 37°57' W 008°53'0 0.0
2018-May-26 17:28N 37°57' W 008°53'0 0.0
2018-May-26 16:58N 37°57' W 008°53'0 0.0
2018-May-26 16:28N 37°57' W 008°53'0 0.0
2018-May-26 15:58N 37°57' W 008°53'0 0.0
2018-May-26 15:28N 37°57' W 008°53'0 0.0
2018-May-26 14:58N 37°57' W 008°53'0 0.0
2018-May-26 14:28N 37°57' W 008°53'0 0.0
2018-May-26 13:58N 37°57' W 008°53'0 0.0
2018-May-26 13:28N 37°57' W 008°53'0 0.0
2018-May-26 13:00N 37°57' W 008°53'1 2.7
2018-May-26 12:30N 37°56' W 008°52'1 1.9
2018-May-26 11:58N 37°55' W 008°52'0 0.2
2018-May-26 11:28N 37°55' W 008°52'0 0.0
2018-May-26 10:58N 37°55' W 008°52'0 0.0
2018-May-26 10:28N 37°55' W 008°52'0 0.0
2018-May-26 09:58N 37°55' W 008°52'0 0.0
2018-May-26 09:28N 37°55' W 008°52'0 0.0
2018-May-26 08:58N 37°55' W 008°52'0 0.0
2018-May-26 08:28N 37°55' W 008°52'0 0.0
2018-May-26 07:55N 37°55' W 008°52'0 0.1
2018-May-26 07:29N 37°55' W 008°52'1 2.3
2018-May-26 06:59N 37°56' W 008°51'0 0.0
2018-May-26 06:29N 37°56' W 008°51'0 0.0
2018-May-26 05:29N 37°56' W 008°51'0 0.0
2018-May-26 04:59N 37°56' W 008°51'0 0.0
2018-May-26 04:29N 37°56' W 008°51'0 0.0
2018-May-26 03:59N 37°56' W 008°51'0 0.0
2018-May-26 03:29N 37°56' W 008°51'0 0.0
2018-May-26 02:56N 37°56' W 008°51'0 0.0
2018-May-26 02:29N 37°56' W 008°51'0 0.0
2018-May-26 02:00N 37°56' W 008°51'1 2.2
2018-May-26 01:31N 37°55' W 008°51'3 5.8
2018-May-26 01:00N 37°54' W 008°54'3 6.4
2018-May-26 00:30N 37°57' W 008°56'5 9.3
2018-May-26 00:00N 38°01' W 008°58'510.5
2018-May-25 23:30N 38°05' W 009°02'510.6
2018-May-25 23:00N 38°10' W 009°06'510.8
2018-May-25 22:30N 38°14' W 009°10'510.8
2018-May-25 22:00N 38°19' W 009°14'510.9
2018-May-25 21:30N 38°23' W 009°17'510.9
2018-May-25 21:00N 38°28' W 009°20'611.1
2018-May-25 20:31N 38°33' W 009°22'5 9.6
2018-May-25 20:00N 38°38' W 009°21'5 9.5
2018-May-25 19:31N 38°41' W 009°16'4 7.7
2018-May-25 19:00N 38°41' W 009°11'0 0.1
2018-May-25 18:06N 38°41' W 009°11'0 0.1
2018-May-25 17:42N 38°41' W 009°11'0 0.1
2018-May-25 17:30N 38°41' W 009°11'0 0.0
2018-May-25 17:00N 38°41' W 009°11'0 0.0
2018-May-25 16:24N 38°41' W 009°11'0 0.0
2018-May-25 15:57N 38°41' W 009°11'0 0.0
2018-May-25 14:18N 38°41' W 009°11'0 0.0
2018-May-25 14:00N 38°41' W 009°11'0 0.2
2018-May-25 12:54N 38°41' W 009°11'1 0.3
2018-May-25 10:16N 38°41' W 009°12'0 0.0
2018-May-25 09:40N 38°41' W 009°12'0 0.0
2018-May-25 09:10N 38°41' W 009°12'0 0.1
2018-May-25 08:49N 38°41' W 009°12'0 0.1
2018-May-25 08:28N 38°41' W 009°12'0 0.1
2018-May-25 07:58N 38°41' W 009°12'0 0.2
2018-May-25 07:22N 38°41' W 009°12'0 0.2
2018-May-25 06:55N 38°41' W 009°12'0 0.2
2018-May-25 06:04N 38°41' W 009°12'0 1.7
2018-May-25 05:54N 38°41' W 009°13'0 0.3
2018-May-25 05:24N 38°41' W 009°13'0 0.0
2018-May-25 04:42N 38°41' W 009°13'0 0.0
2018-May-25 04:21N 38°41' W 009°13'0 0.0
2018-May-25 03:45N 38°41' W 009°13'0 0.0
2018-May-25 03:30N 38°41' W 009°13'0 0.0
2018-May-25 02:27N 38°41' W 009°13'0 0.0
2018-May-25 02:00N 38°41' W 009°13'0 0.0
2018-May-25 01:27N 38°41' W 009°13'0 0.0
2018-May-25 00:24N 38°41' W 009°13'0 0.0
2018-May-24 23:57N 38°41' W 009°13'0 0.0
2018-May-24 23:30N 38°41' W 009°13'0 0.0
2018-May-24 23:00N 38°41' W 009°13'0 0.0
2018-May-24 22:09N 38°41' W 009°13'0 0.0
2018-May-24 21:57N 38°41' W 009°13'0 0.0
2018-May-24 21:24N 38°41' W 009°13'0 0.2
2018-May-24 20:51N 38°41' W 009°13'2 6.1
2018-May-24 20:30N 38°42' W 009°10'0 0.4
2018-May-24 19:44N 38°42' W 009°10'0 0.0
2018-May-24 19:16N 38°42' W 009°10'0 0.0
2018-May-24 18:52N 38°42' W 009°10'0 0.0
2018-May-24 14:31N 38°42' W 009°10'0 0.1
2018-May-24 14:28N 38°42' W 009°10'0 0.0
2018-May-24 13:46N 38°42' W 009°10'15 3.1
2018-May-24 09:00N 38°30' W 009°21'2 4.4
2018-May-24 08:30N 38°31' W 009°22'4 8.6
2018-May-24 08:00N 38°27' W 009°20'510.4
2018-May-24 07:30N 38°23' W 009°17'510.1
2018-May-24 07:00N 38°19' W 009°13'5 9.9
2018-May-24 06:30N 38°15' W 009°10'5 9.9
2018-May-24 06:00N 38°10' W 009°07'5 9.7
2018-May-24 05:31N 38°06' W 009°03'510.3
2018-May-24 05:00N 38°02' W 008°60'510.0
2018-May-24 04:30N 37°58' W 008°56'2 4.7
2018-May-24 04:00N 37°57' W 008°53'0 0.0
2018-May-24 03:30N 37°57' W 008°53'0 0.0
2018-May-24 03:00N 37°57' W 008°53'0 0.0
2018-May-24 02:30N 37°57' W 008°53'0 0.0
2018-May-24 02:00N 37°57' W 008°53'0 0.0
2018-May-24 01:30N 37°57' W 008°53'0 0.0
2018-May-24 01:00N 37°57' W 008°53'0 0.0
2018-May-24 00:30N 37°57' W 008°53'0 0.0
2018-May-24 00:00N 37°57' W 008°53'0 0.0
2018-May-23 23:30N 37°57' W 008°53'0 0.0
2018-May-23 23:00N 37°57' W 008°53'0 0.0
2018-May-23 22:30N 37°57' W 008°53'0 0.0
2018-May-23 22:00N 37°57' W 008°53'0 0.0
2018-May-23 21:30N 37°57' W 008°53'1 1.8
2018-May-23 21:00N 37°56' W 008°53'2 3.1
2018-May-23 20:30N 37°56' W 008°51'0 0.0
2018-May-23 20:00N 37°56' W 008°51'0 0.0
2018-May-23 19:30N 37°56' W 008°51'0 0.0
2018-May-23 18:57N 37°56' W 008°51'0 0.0
2018-May-23 18:30N 37°56' W 008°51'0 0.0
2018-May-23 18:00N 37°56' W 008°51'0 0.0
2018-May-23 17:30N 37°56' W 008°51'0 0.0
2018-May-23 17:00N 37°56' W 008°51'0 0.0
2018-May-23 16:30N 37°56' W 008°51'0 0.0
2018-May-23 16:00N 37°56' W 008°51'0 0.0
2018-May-23 15:30N 37°56' W 008°51'0 0.0
2018-May-23 15:00N 37°56' W 008°51'0 0.0
2018-May-23 14:30N 37°56' W 008°51'0 0.0
2018-May-23 14:00N 37°56' W 008°51'0 0.5
2018-May-23 13:30N 37°56' W 008°51'0 0.0
2018-May-23 13:00N 37°56' W 008°51'0 0.0
2018-May-23 12:30N 37°56' W 008°51'0 0.0
2018-May-23 12:00N 37°56' W 008°51'0 0.0
2018-May-23 11:30N 37°56' W 008°51'0 0.0
2018-May-23 11:00N 37°56' W 008°51'0 0.0
2018-May-23 10:30N 37°56' W 008°51'0 0.0
2018-May-23 10:00N 37°56' W 008°51'0 0.0
2018-May-23 09:30N 37°56' W 008°51'0 0.0
2018-May-23 09:00N 37°56' W 008°51'0 0.0
2018-May-23 08:30N 37°56' W 008°51'0 0.0
2018-May-23 08:00N 37°56' W 008°51'0 0.0
2018-May-23 07:30N 37°56' W 008°51'0 0.0
2018-May-23 07:00N 37°56' W 008°51'0 0.0
2018-May-23 06:30N 37°56' W 008°51'0 0.0
2018-May-23 06:00N 37°56' W 008°51'0 0.0
2018-May-23 05:30N 37°56' W 008°51'0 0.0
2018-May-23 05:00N 37°56' W 008°51'0 0.0
2018-May-23 04:30N 37°56' W 008°51'0 0.0
2018-May-23 04:00N 37°56' W 008°51'0 0.0
2018-May-23 03:30N 37°56' W 008°51'0 0.0
2018-May-23 03:00N 37°56' W 008°51'0 0.0
2018-May-23 02:30N 37°56' W 008°51'0 0.0
2018-May-23 02:00N 37°56' W 008°51'0 0.0
2018-May-23 01:27N 37°56' W 008°51'0 0.0
2018-May-23 01:00N 37°56' W 008°51'0 0.0
2018-May-23 00:30N 37°56' W 008°51'1 1.2
2018-May-23 00:00N 37°55' W 008°51'3 5.1
2018-May-22 23:28N 37°57' W 008°53'0 0.0
2018-May-22 22:58N 37°57' W 008°53'0 0.0
2018-May-22 22:28N 37°57' W 008°53'0 0.0
2018-May-22 21:58N 37°57' W 008°53'0 0.0
2018-May-22 21:28N 37°57' W 008°53'0 0.0
2018-May-22 20:58N 37°57' W 008°53'0 0.0
2018-May-22 20:28N 37°57' W 008°53'0 0.0
2018-May-22 19:58N 37°57' W 008°53'0 0.0
2018-May-22 19:28N 37°57' W 008°53'0 0.0
2018-May-22 18:58N 37°57' W 008°53'0 0.0
2018-May-22 18:28N 37°57' W 008°53'0 0.0
2018-May-22 17:58N 37°57' W 008°53'0 0.0
2018-May-22 17:25N 37°57' W 008°53'0 0.0
2018-May-22 16:58N 37°57' W 008°53'0 0.0
2018-May-22 16:25N 37°57' W 008°53'0 0.0
2018-May-22 15:58N 37°57' W 008°53'0 0.0
2018-May-22 15:28N 37°57' W 008°53'0 0.0
2018-May-22 14:58N 37°57' W 008°53'0 0.0
2018-May-22 14:28N 37°57' W 008°53'0 0.0
2018-May-22 13:59N 37°57' W 008°53'1 1.9
2018-May-22 13:30N 37°56' W 008°53'1 2.6
2018-May-22 12:58N 37°56' W 008°51'0 0.0
2018-May-22 12:28N 37°56' W 008°51'0 0.0
2018-May-22 11:58N 37°56' W 008°51'0 0.0
2018-May-22 11:28N 37°56' W 008°51'0 0.0
2018-May-22 10:55N 37°56' W 008°51'0 0.0
2018-May-22 10:28N 37°56' W 008°51'0 0.0
2018-May-22 09:58N 37°56' W 008°51'0 0.0
2018-May-22 09:28N 37°56' W 008°51'0 0.0
2018-May-22 08:58N 37°56' W 008°51'0 0.0
2018-May-22 08:30N 37°56' W 008°51'0 0.0
2018-May-22 08:00N 37°56' W 008°51'0 0.0
2018-May-22 07:30N 37°56' W 008°51'0 0.0
2018-May-22 07:00N 37°56' W 008°51'1 1.6
2018-May-22 06:31N 37°55' W 008°51'3 5.2
2018-May-22 05:59N 37°57' W 008°53'0 0.0
2018-May-22 05:29N 37°57' W 008°53'0 0.0
2018-May-22 04:59N 37°57' W 008°53'0 0.0
2018-May-22 04:29N 37°57' W 008°53'0 0.0
2018-May-22 03:59N 37°57' W 008°53'0 0.0
2018-May-22 03:29N 37°57' W 008°53'0 0.0
2018-May-22 02:59N 37°57' W 008°53'0 0.0
2018-May-22 02:29N 37°57' W 008°53'0 0.0
2018-May-22 01:59N 37°57' W 008°53'0 0.0
2018-May-22 01:30N 37°57' W 008°53'1 2.6
2018-May-22 01:00N 37°56' W 008°52'0 0.2
2018-May-22 00:30N 37°56' W 008°52'1 2.8
2018-May-22 00:00N 37°56' W 008°51'0 0.0
2018-May-21 23:30N 37°56' W 008°51'0 0.0
2018-May-21 23:00N 37°56' W 008°51'0 0.0
2018-May-21 22:30N 37°56' W 008°51'0 0.0
2018-May-21 22:00N 37°56' W 008°51'0 0.0
2018-May-21 21:30N 37°56' W 008°51'0 0.0
2018-May-21 21:00N 37°56' W 008°51'0 0.1
2018-May-21 20:30N 37°56' W 008°51'1 2.6
2018-May-21 20:00N 37°55' W 008°52'0 0.5
2018-May-21 19:30N 37°55' W 008°52'1 2.2
2018-May-21 18:58N 37°56' W 008°51'0 0.0
2018-May-21 18:28N 37°56' W 008°51'0 0.0
2018-May-21 17:58N 37°56' W 008°51'0 0.0
2018-May-21 17:28N 37°56' W 008°51'0 0.0
2018-May-21 16:58N 37°56' W 008°51'0 0.0
2018-May-21 16:28N 37°56' W 008°51'0 0.0
2018-May-21 15:58N 37°56' W 008°51'0 0.0
2018-May-21 15:28N 37°56' W 008°51'0 0.0
2018-May-21 15:01N 37°56' W 008°51'0 0.0
2018-May-21 14:25N 37°56' W 008°51'0 0.0
2018-May-21 13:58N 37°56' W 008°51'0 0.0
2018-May-21 13:28N 37°56' W 008°51'0 0.0
2018-May-21 13:01N 37°56' W 008°51'0 0.0
2018-May-21 12:28N 37°56' W 008°51'0 0.0
2018-May-21 11:58N 37°56' W 008°51'0 0.0
2018-May-21 11:29N 37°56' W 008°51'0 0.1
2018-May-21 11:00N 37°56' W 008°51'1 1.8
2018-May-21 10:30N 37°55' W 008°51'1 2.4
2018-May-21 10:00N 37°56' W 008°52'0 0.0
2018-May-21 09:30N 37°56' W 008°52'0 0.0
2018-May-21 09:00N 37°56' W 008°52'0 0.0
2018-May-21 08:30N 37°56' W 008°52'0 0.0
2018-May-21 08:00N 37°56' W 008°52'0 0.0
2018-May-21 07:30N 37°56' W 008°52'0 0.0
2018-May-21 07:00N 37°56' W 008°52'0 0.0
2018-May-21 06:30N 37°56' W 008°52'0 0.0
2018-May-21 06:00N 37°56' W 008°52'0 0.0
2018-May-21 05:30N 37°56' W 008°52'0 0.0
2018-May-21 05:00N 37°56' W 008°52'0 0.0
2018-May-21 04:30N 37°56' W 008°52'0 0.0
2018-May-21 04:00N 37°56' W 008°52'0 0.0
2018-May-21 03:30N 37°56' W 008°52'0 0.0
2018-May-21 03:00N 37°56' W 008°52'0 0.0
2018-May-21 02:30N 37°56' W 008°52'0 0.0
2018-May-21 02:00N 37°56' W 008°52'1 2.8
2018-May-21 01:30N 37°57' W 008°53'0 0.3
2018-May-21 01:00N 37°57' W 008°53'0 0.0
2018-May-21 00:30N 37°57' W 008°53'0 0.0
2018-May-21 00:00N 37°57' W 008°53'0 0.0
2018-May-20 23:30N 37°57' W 008°53'0 0.0
2018-May-20 23:00N 37°57' W 008°53'0 0.0
2018-May-20 22:30N 37°57' W 008°53'0 0.0
2018-May-20 22:00N 37°57' W 008°53'0 0.0
2018-May-20 21:30N 37°57' W 008°53'0 0.0
2018-May-20 21:00N 37°57' W 008°53'0 0.0
2018-May-20 20:30N 37°57' W 008°53'0 0.0
2018-May-20 20:00N 37°57' W 008°53'1 1.1
2018-May-20 19:31N 37°57' W 008°53'2 3.7
2018-May-20 19:00N 37°56' W 008°51'0 0.1
2018-May-20 18:30N 37°56' W 008°51'0 0.0
2018-May-20 18:00N 37°56' W 008°51'0 0.0
2018-May-20 17:30N 37°56' W 008°51'0 0.0
2018-May-20 17:00N 37°56' W 008°51'0 0.0
2018-May-20 16:30N 37°56' W 008°51'0 0.0
2018-May-20 16:00N 37°56' W 008°51'0 0.0
2018-May-20 15:30N 37°56' W 008°51'0 0.0
2018-May-20 15:00N 37°56' W 008°51'0 0.0
2018-May-20 14:30N 37°56' W 008°51'0 0.0
2018-May-20 14:00N 37°56' W 008°51'0 0.0
2018-May-20 13:30N 37°56' W 008°51'0 0.0
2018-May-20 13:00N 37°56' W 008°51'0 0.0
2018-May-20 12:30N 37°56' W 008°51'0 0.0
2018-May-20 12:01N 37°56' W 008°51'1 1.7
2018-May-20 11:31N 37°55' W 008°51'1 1.4
2018-May-20 10:58N 37°55' W 008°51'0 0.0
2018-May-20 10:28N 37°55' W 008°51'0 0.0
2018-May-20 09:58N 37°55' W 008°51'0 0.0
2018-May-20 09:28N 37°55' W 008°51'0 0.0
2018-May-20 08:58N 37°55' W 008°51'0 0.0
2018-May-20 08:28N 37°55' W 008°51'0 0.4
2018-May-20 08:01N 37°55' W 008°51'2 4.4
2018-May-20 07:28N 37°57' W 008°53'0 0.0
2018-May-20 06:55N 37°57' W 008°53'0 0.0
2018-May-20 06:28N 37°57' W 008°53'0 0.0
2018-May-20 05:58N 37°57' W 008°53'0 0.0
2018-May-20 05:28N 37°57' W 008°53'0 0.0
2018-May-20 04:58N 37°57' W 008°53'0 0.0
2018-May-20 04:28N 37°57' W 008°53'0 0.0
2018-May-20 03:58N 37°57' W 008°53'0 0.0
2018-May-20 03:28N 37°57' W 008°53'0 0.0
2018-May-20 02:58N 37°57' W 008°53'0 0.0
2018-May-20 02:28N 37°57' W 008°53'0 0.0
2018-May-20 01:58N 37°57' W 008°53'0 0.0
2018-May-20 01:28N 37°57' W 008°53'0 0.0
2018-May-20 00:58N 37°57' W 008°53'0 0.0
2018-May-20 00:28N 37°57' W 008°53'0 0.0
2018-May-19 23:58N 37°57' W 008°53'0 0.0
2018-May-19 23:28N 37°57' W 008°53'0 0.0
2018-May-19 22:58N 37°57' W 008°53'0 0.0
2018-May-19 22:28N 37°57' W 008°53'0 0.0
2018-May-19 21:58N 37°57' W 008°53'0 0.0
2018-May-19 21:28N 37°57' W 008°53'0 0.0
2018-May-19 20:58N 37°57' W 008°53'0 0.0
2018-May-19 20:30N 37°57' W 008°53'0 0.7
2018-May-19 20:00N 37°57' W 008°53'2 4.9
2018-May-19 19:30N 37°58' W 008°56'510.5
2018-May-19 19:00N 38°02' W 008°59'510.6
2018-May-19 18:30N 38°07' W 009°03'510.9
2018-May-19 18:00N 38°11' W 009°07'511.0
2018-May-19 17:30N 38°16' W 009°11'611.3
2018-May-19 17:00N 38°21' W 009°15'611.1
2018-May-19 16:30N 38°25' W 009°18'510.8
2018-May-19 16:00N 38°30' W 009°21'510.8
2018-May-19 15:30N 38°36' W 009°23'5 9.2
2018-May-19 15:00N 38°39' W 009°19'4 7.3
2018-May-19 14:30N 38°41' W 009°15'2 3.8
2018-May-19 14:00N 38°41' W 009°13'0 0.0
2018-May-19 13:27N 38°41' W 009°13'0 0.0
2018-May-19 12:57N 38°41' W 009°13'0 0.0
2018-May-19 12:03N 38°41' W 009°13'0 0.1
2018-May-19 11:57N 38°41' W 009°13'0 0.0
2018-May-19 11:18N 38°41' W 009°13'0 0.0
2018-May-19 09:51N 38°41' W 009°13'0 0.0
2018-May-19 09:27N 38°41' W 009°13'0 0.0
2018-May-19 08:36N 38°41' W 009°13'0 0.0
2018-May-19 08:27N 38°41' W 009°13'0 0.0
2018-May-19 07:54N 38°41' W 009°13'0 0.0
2018-May-19 07:27N 38°41' W 009°13'0 0.0
2018-May-19 06:33N 38°41' W 009°13'0 0.0
2018-May-19 06:06N 38°41' W 009°13'0 0.0
2018-May-19 05:51N 38°41' W 009°13'0 0.0
2018-May-19 05:30N 38°41' W 009°13'0 0.0
2018-May-19 04:57N 38°41' W 009°13'0 0.0
2018-May-19 04:18N 38°41' W 009°13'0 0.0
2018-May-19 04:00N 38°41' W 009°13'0 0.0
2018-May-19 03:00N 38°41' W 009°13'0 0.0
2018-May-19 02:03N 38°41' W 009°13'0 0.1
2018-May-19 01:57N 38°41' W 009°13'0 0.0
2018-May-19 01:09N 38°41' W 009°13'0 0.0
2018-May-19 01:00N 38°41' W 009°13'0 0.0
2018-May-19 00:30N 38°41' W 009°13'0 0.0
2018-May-18 23:27N 38°41' W 009°13'0 0.0
2018-May-18 22:57N 38°41' W 009°13'0 0.0
2018-May-18 22:20N 38°41' W 009°13'0 1.2
2018-May-18 22:00N 38°41' W 009°13'5 7.2
2018-May-18 21:21N 38°43' W 009°07'0 0.0
2018-May-18 20:51N 38°43' W 009°07'0 0.0
2018-May-18 20:27N 38°43' W 009°07'0 0.0
2018-May-18 20:00N 38°43' W 009°07'0 0.0
2018-May-18 18:51N 38°43' W 009°07'0 0.0
2018-May-18 18:27N 38°43' W 009°07'0 0.0
2018-May-18 18:00N 38°43' W 009°07'0 0.0
2018-May-18 17:03N 38°43' W 009°07'0 0.1
2018-May-18 17:00N 38°43' W 009°07'0 0.0
2018-May-18 15:33N 38°43' W 009°07'0 0.0
2018-May-18 15:27N 38°43' W 009°07'0 0.0
2018-May-18 14:51N 38°43' W 009°07'0 0.0
2018-May-18 14:27N 38°43' W 009°07'0 0.0
2018-May-18 13:24N 38°43' W 009°07'0 0.0
2018-May-18 13:00N 38°43' W 009°07'0 0.6
2018-May-18 12:31N 38°43' W 009°07'5 8.9
2018-May-18 11:59N 38°41' W 009°13'3 5.5
2018-May-18 11:29N 38°41' W 009°16'4 8.5
2018-May-18 11:00N 38°39' W 009°20'4 7.5
2018-May-18 10:30N 38°36' W 009°23'3 5.8
2018-May-18 10:00N 38°33' W 009°22'3 5.0
2018-May-18 09:30N 38°31' W 009°21'3 5.6
2018-May-18 09:00N 38°28' W 009°20'4 7.5
2018-May-18 08:27N 38°24' W 009°18'4 8.2
2018-May-18 08:00N 38°21' W 009°15'4 7.9
2018-May-18 07:30N 38°18' W 009°13'4 7.8
2018-May-18 07:00N 38°14' W 009°10'4 7.9
2018-May-18 06:30N 38°11' W 009°07'4 7.9
2018-May-18 06:00N 38°08' W 009°04'4 8.0
2018-May-18 05:30N 38°05' W 009°02'4 8.2
2018-May-18 05:00N 38°01' W 008°59'4 8.3
2018-May-18 04:30N 37°58' W 008°56'4 7.1
2018-May-18 04:00N 37°55' W 008°53'0 0.2
2018-May-18 03:29N 37°55' W 008°53'0 0.0
2018-May-18 02:59N 37°55' W 008°53'0 0.0
2018-May-18 02:29N 37°55' W 008°53'0 0.1
2018-May-18 01:59N 37°55' W 008°53'0 0.0
2018-May-18 01:29N 37°55' W 008°53'0 0.0
2018-May-18 00:59N 37°55' W 008°53'0 0.0
2018-May-18 00:29N 37°55' W 008°53'0 0.0
2018-May-17 23:59N 37°55' W 008°53'0 0.0
2018-May-17 23:29N 37°55' W 008°53'0 0.0
2018-May-17 22:59N 37°55' W 008°53'0 0.0
2018-May-17 22:29N 37°55' W 008°53'0 0.0
2018-May-17 21:59N 37°55' W 008°53'0 0.0
2018-May-17 21:29N 37°55' W 008°53'0 0.0
2018-May-17 20:59N 37°55' W 008°53'0 0.0
2018-May-17 20:29N 37°55' W 008°53'0 0.0
2018-May-17 19:59N 37°55' W 008°53'0 0.0
2018-May-17 19:29N 37°55' W 008°53'1 2.3
2018-May-17 19:01N 37°56' W 008°52'2 3.2
2018-May-17 18:28N 37°57' W 008°53'0 0.0
2018-May-17 17:58N 37°57' W 008°53'0 0.0
2018-May-17 17:28N 37°57' W 008°53'0 0.0
2018-May-17 16:58N 37°57' W 008°53'0 0.0
2018-May-17 16:28N 37°57' W 008°53'0 0.0
2018-May-17 15:58N 37°57' W 008°53'0 0.0
2018-May-17 15:28N 37°57' W 008°53'0 0.0
2018-May-17 14:55N 37°57' W 008°53'0 0.0
2018-May-17 14:28N 37°57' W 008°53'0 0.0
2018-May-17 13:58N 37°57' W 008°53'0 0.0
2018-May-17 13:28N 37°57' W 008°53'0 0.0
2018-May-17 12:58N 37°57' W 008°53'0 0.0
2018-May-17 12:28N 37°57' W 008°53'0 0.0
2018-May-17 11:58N 37°57' W 008°53'0 0.0
2018-May-17 11:28N 37°57' W 008°53'0 0.0
2018-May-17 10:58N 37°57' W 008°53'0 0.0
2018-May-17 10:28N 37°57' W 008°53'0 0.0
2018-May-17 09:52N 37°57' W 008°53'0 0.0
2018-May-17 09:28N 37°57' W 008°53'0 0.0
2018-May-17 08:58N 37°57' W 008°53'0 0.0
2018-May-17 08:28N 37°57' W 008°53'0 0.0
2018-May-17 07:58N 37°57' W 008°53'0 0.0
2018-May-17 07:28N 37°57' W 008°53'0 0.0
2018-May-17 06:58N 37°57' W 008°53'0 0.0
2018-May-17 06:28N 37°57' W 008°53'0 0.0
2018-May-17 05:58N 37°57' W 008°53'0 0.0
2018-May-17 05:28N 37°57' W 008°53'0 0.0
2018-May-17 04:58N 37°57' W 008°53'0 0.0
2018-May-17 04:28N 37°57' W 008°53'0 0.0
2018-May-17 04:01N 37°57' W 008°53'2 4.0
2018-May-17 03:30N 37°55' W 008°52'  
Track history (hours):
 
Tides and Currents Weather Stations Pressure Air Temp Water Temp Dewpoint Dewpoint Depression Visibility Wind Speed Wind Dir Waves Ship Positions

Bahia Tres

Last reported at 2018-May-27 03:28 UTC. Time now 2018-May-27 03:28 UTC.
Position N 37°57' W 008°53'.

Length 100 m; draft 5.8 m.

Type: Tanker. MMSI: 224994000.

Date/timePositionNaut miles runAvg speedWind from/ knotsBaromVisibWave heightAir tempDewpointWater temp
2018-May-27 03:28N 37°57' W 008°53'0 0.0
2018-May-27 02:58N 37°57' W 008°53'0 0.0
2018-May-27 02:28N 37°57' W 008°53'0 0.0
2018-May-27 01:58N 37°57' W 008°53'0 0.0
2018-May-27 01:28N 37°57' W 008°53'0 0.0
2018-May-27 00:58N 37°57' W 008°53'0 0.0
2018-May-27 00:28N 37°57' W 008°53'0 0.0
2018-May-26 23:58N 37°57' W 008°53'0 0.0
2018-May-26 23:28N 37°57' W 008°53'0 0.0
2018-May-26 22:58N 37°57' W 008°53'0 0.0
2018-May-26 22:28N 37°57' W 008°53'0 0.0
2018-May-26 21:58N 37°57' W 008°53'0 0.0
2018-May-26 21:28N 37°57' W 008°53'0 0.0
2018-May-26 20:58N 37°57' W 008°53'0 0.0
2018-May-26 20:25N 37°57' W 008°53'0 0.0
2018-May-26 19:58N 37°57' W 008°53'0 0.0
2018-May-26 19:28N 37°57' W 008°53'0 0.0
2018-May-26 18:58N 37°57' W 008°53'0 0.0
2018-May-26 18:28N 37°57' W 008°53'0 0.0
2018-May-26 17:58N 37°57' W 008°53'0 0.0
2018-May-26 17:28N 37°57' W 008°53'0 0.0
2018-May-26 16:58N 37°57' W 008°53'0 0.0
2018-May-26 16:28N 37°57' W 008°53'0 0.0
2018-May-26 15:58N 37°57' W 008°53'0 0.0
2018-May-26 15:28N 37°57' W 008°53'0 0.0
2018-May-26 14:58N 37°57' W 008°53'0 0.0
2018-May-26 14:28N 37°57' W 008°53'0 0.0
2018-May-26 13:58N 37°57' W 008°53'0 0.0
2018-May-26 13:28N 37°57' W 008°53'0 0.0
2018-May-26 13:00N 37°57' W 008°53'1 2.7
2018-May-26 12:30N 37°56' W 008°52'1 1.9
2018-May-26 11:58N 37°55' W 008°52'0 0.2
2018-May-26 11:28N 37°55' W 008°52'0 0.0
2018-May-26 10:58N 37°55' W 008°52'0 0.0
2018-May-26 10:28N 37°55' W 008°52'0 0.0
2018-May-26 09:58N 37°55' W 008°52'0 0.0
2018-May-26 09:28N 37°55' W 008°52'0 0.0
2018-May-26 08:58N 37°55' W 008°52'0 0.0
2018-May-26 08:28N 37°55' W 008°52'0 0.0
2018-May-26 07:55N 37°55' W 008°52'0 0.1
2018-May-26 07:29N 37°55' W 008°52'1 2.3
2018-May-26 06:59N 37°56' W 008°51'0 0.0
2018-May-26 06:29N 37°56' W 008°51'0 0.0
2018-May-26 05:29N 37°56' W 008°51'0 0.0
2018-May-26 04:59N 37°56' W 008°51'0 0.0
2018-May-26 04:29N 37°56' W 008°51'0 0.0
2018-May-26 03:59N 37°56' W 008°51'0 0.0
2018-May-26 03:29N 37°56' W 008°51'0 0.0
2018-May-26 02:56N 37°56' W 008°51'0 0.0
2018-May-26 02:29N 37°56' W 008°51'0 0.0
2018-May-26 02:00N 37°56' W 008°51'1 2.2
2018-May-26 01:31N 37°55' W 008°51'3 5.8
2018-May-26 01:00N 37°54' W 008°54'3 6.4
2018-May-26 00:30N 37°57' W 008°56'5 9.3
2018-May-26 00:00N 38°01' W 008°58'510.5
2018-May-25 23:30N 38°05' W 009°02'510.6
2018-May-25 23:00N 38°10' W 009°06'510.8
2018-May-25 22:30N 38°14' W 009°10'510.8
2018-May-25 22:00N 38°19' W 009°14'510.9
2018-May-25 21:30N 38°23' W 009°17'510.9
2018-May-25 21:00N 38°28' W 009°20'611.1
2018-May-25 20:31N 38°33' W 009°22'5 9.6
2018-May-25 20:00N 38°38' W 009°21'5 9.5
2018-May-25 19:31N 38°41' W 009°16'4 7.7
2018-May-25 19:00N 38°41' W 009°11'0 0.1
2018-May-25 18:06N 38°41' W 009°11'0 0.1
2018-May-25 17:42N 38°41' W 009°11'0 0.1
2018-May-25 17:30N 38°41' W 009°11'0 0.0
2018-May-25 17:00N 38°41' W 009°11'0 0.0
2018-May-25 16:24N 38°41' W 009°11'0 0.0
2018-May-25 15:57N 38°41' W 009°11'0 0.0
2018-May-25 14:18N 38°41' W 009°11'0 0.0
2018-May-25 14:00N 38°41' W 009°11'0 0.2
2018-May-25 12:54N 38°41' W 009°11'1 0.3
2018-May-25 10:16N 38°41' W 009°12'0 0.0
2018-May-25 09:40N 38°41' W 009°12'0 0.0
2018-May-25 09:10N 38°41' W 009°12'0 0.1
2018-May-25 08:49N 38°41' W 009°12'0 0.1
2018-May-25 08:28N 38°41' W 009°12'0 0.1
2018-May-25 07:58N 38°41' W 009°12'0 0.2
2018-May-25 07:22N 38°41' W 009°12'0 0.2
2018-May-25 06:55N 38°41' W 009°12'0 0.2
2018-May-25 06:04N 38°41' W 009°12'0 1.7
2018-May-25 05:54N 38°41' W 009°13'0 0.3
2018-May-25 05:24N 38°41' W 009°13'0 0.0
2018-May-25 04:42N 38°41' W 009°13'0 0.0
2018-May-25 04:21N 38°41' W 009°13'0 0.0
2018-May-25 03:45N 38°41' W 009°13'0 0.0
2018-May-25 03:30N 38°41' W 009°13'0 0.0
2018-May-25 02:27N 38°41' W 009°13'0 0.0
2018-May-25 02:00N 38°41' W 009°13'0 0.0
2018-May-25 01:27N 38°41' W 009°13'0 0.0
2018-May-25 00:24N 38°41' W 009°13'0 0.0
2018-May-24 23:57N 38°41' W 009°13'0 0.0
2018-May-24 23:30N 38°41' W 009°13'0 0.0
2018-May-24 23:00N 38°41' W 009°13'0 0.0
2018-May-24 22:09N 38°41' W 009°13'0 0.0
2018-May-24 21:57N 38°41' W 009°13'0 0.0
2018-May-24 21:24N 38°41' W 009°13'0 0.2
2018-May-24 20:51N 38°41' W 009°13'2 6.1
2018-May-24 20:30N 38°42' W 009°10'0 0.4
2018-May-24 19:44N 38°42' W 009°10'0 0.0
2018-May-24 19:16N 38°42' W 009°10'0 0.0
2018-May-24 18:52N 38°42' W 009°10'0 0.0
2018-May-24 14:31N 38°42' W 009°10'0 0.1
2018-May-24 14:28N 38°42' W 009°10'0 0.0
2018-May-24 13:46N 38°42' W 009°10'15 3.1
2018-May-24 09:00N 38°30' W 009°21'2 4.4
2018-May-24 08:30N 38°31' W 009°22'4 8.6
2018-May-24 08:00N 38°27' W 009°20'510.4
2018-May-24 07:30N 38°23' W 009°17'510.1
2018-May-24 07:00N 38°19' W 009°13'5 9.9
2018-May-24 06:30N 38°15' W 009°10'5 9.9
2018-May-24 06:00N 38°10' W 009°07'5 9.7
2018-May-24 05:31N 38°06' W 009°03'510.3
2018-May-24 05:00N 38°02' W 008°60'510.0
2018-May-24 04:30N 37°58' W 008°56'2 4.7
2018-May-24 04:00N 37°57' W 008°53'0 0.0
2018-May-24 03:30N 37°57' W 008°53'0 0.0
2018-May-24 03:00N 37°57' W 008°53'0 0.0
2018-May-24 02:30N 37°57' W 008°53'0 0.0
2018-May-24 02:00N 37°57' W 008°53'0 0.0
2018-May-24 01:30N 37°57' W 008°53'0 0.0
2018-May-24 01:00N 37°57' W 008°53'0 0.0
2018-May-24 00:30N 37°57' W 008°53'0 0.0
2018-May-24 00:00N 37°57' W 008°53'0 0.0
2018-May-23 23:30N 37°57' W 008°53'0 0.0
2018-May-23 23:00N 37°57' W 008°53'0 0.0
2018-May-23 22:30N 37°57' W 008°53'0 0.0
2018-May-23 22:00N 37°57' W 008°53'0 0.0
2018-May-23 21:30N 37°57' W 008°53'1 1.8
2018-May-23 21:00N 37°56' W 008°53'2 3.1
2018-May-23 20:30N 37°56' W 008°51'0 0.0
2018-May-23 20:00N 37°56' W 008°51'0 0.0
2018-May-23 19:30N 37°56' W 008°51'0 0.0
2018-May-23 18:57N 37°56' W 008°51'0 0.0
2018-May-23 18:30N 37°56' W 008°51'0 0.0
2018-May-23 18:00N 37°56' W 008°51'0 0.0
2018-May-23 17:30N 37°56' W 008°51'0 0.0
2018-May-23 17:00N 37°56' W 008°51'0 0.0
2018-May-23 16:30N 37°56' W 008°51'0 0.0
2018-May-23 16:00N 37°56' W 008°51'0 0.0
2018-May-23 15:30N 37°56' W 008°51'0 0.0
2018-May-23 15:00N 37°56' W 008°51'0 0.0
2018-May-23 14:30N 37°56' W 008°51'0 0.0
2018-May-23 14:00N 37°56' W 008°51'0 0.5
2018-May-23 13:30N 37°56' W 008°51'0 0.0
2018-May-23 13:00N 37°56' W 008°51'0 0.0
2018-May-23 12:30N 37°56' W 008°51'0 0.0
2018-May-23 12:00N 37°56' W 008°51'0 0.0
2018-May-23 11:30N 37°56' W 008°51'0 0.0
2018-May-23 11:00N 37°56' W 008°51'0 0.0
2018-May-23 10:30N 37°56' W 008°51'0 0.0
2018-May-23 10:00N 37°56' W 008°51'0 0.0
2018-May-23 09:30N 37°56' W 008°51'0 0.0
2018-May-23 09:00N 37°56' W 008°51'0 0.0
2018-May-23 08:30N 37°56' W 008°51'0 0.0
2018-May-23 08:00N 37°56' W 008°51'0 0.0
2018-May-23 07:30N 37°56' W 008°51'0 0.0
2018-May-23 07:00N 37°56' W 008°51'0 0.0
2018-May-23 06:30N 37°56' W 008°51'0 0.0
2018-May-23 06:00N 37°56' W 008°51'0 0.0
2018-May-23 05:30N 37°56' W 008°51'0 0.0
2018-May-23 05:00N 37°56' W 008°51'0 0.0
2018-May-23 04:30N 37°56' W 008°51'0 0.0
2018-May-23 04:00N 37°56' W 008°51'0 0.0
2018-May-23 03:30N 37°56' W 008°51'0 0.0
2018-May-23 03:00N 37°56' W 008°51'0 0.0
2018-May-23 02:30N 37°56' W 008°51'0 0.0
2018-May-23 02:00N 37°56' W 008°51'0 0.0
2018-May-23 01:27N 37°56' W 008°51'0 0.0
2018-May-23 01:00N 37°56' W 008°51'0 0.0
2018-May-23 00:30N 37°56' W 008°51'1 1.2
2018-May-23 00:00N 37°55' W 008°51'3 5.1
2018-May-22 23:28N 37°57' W 008°53'0 0.0
2018-May-22 22:58N 37°57' W 008°53'0 0.0
2018-May-22 22:28N 37°57' W 008°53'0 0.0
2018-May-22 21:58N 37°57' W 008°53'0 0.0
2018-May-22 21:28N 37°57' W 008°53'0 0.0
2018-May-22 20:58N 37°57' W 008°53'0 0.0
2018-May-22 20:28N 37°57' W 008°53'0 0.0
2018-May-22 19:58N 37°57' W 008°53'0 0.0
2018-May-22 19:28N 37°57' W 008°53'0 0.0
2018-May-22 18:58N 37°57' W 008°53'0 0.0
2018-May-22 18:28N 37°57' W 008°53'0 0.0
2018-May-22 17:58N 37°57' W 008°53'0 0.0
2018-May-22 17:25N 37°57' W 008°53'0 0.0
2018-May-22 16:58N 37°57' W 008°53'0 0.0
2018-May-22 16:25N 37°57' W 008°53'0 0.0
2018-May-22 15:58N 37°57' W 008°53'0 0.0
2018-May-22 15:28N 37°57' W 008°53'0 0.0
2018-May-22 14:58N 37°57' W 008°53'0 0.0
2018-May-22 14:28N 37°57' W 008°53'0 0.0
2018-May-22 13:59N 37°57' W 008°53'1 1.9
2018-May-22 13:30N 37°56' W 008°53'1 2.6
2018-May-22 12:58N 37°56' W 008°51'0 0.0
2018-May-22 12:28N 37°56' W 008°51'0 0.0
2018-May-22 11:58N 37°56' W 008°51'0 0.0
2018-May-22 11:28N 37°56' W 008°51'0 0.0
2018-May-22 10:55N 37°56' W 008°51'0 0.0
2018-May-22 10:28N 37°56' W 008°51'0 0.0
2018-May-22 09:58N 37°56' W 008°51'0 0.0
2018-May-22 09:28N 37°56' W 008°51'0 0.0
2018-May-22 08:58N 37°56' W 008°51'0 0.0
2018-May-22 08:30N 37°56' W 008°51'0 0.0
2018-May-22 08:00N 37°56' W 008°51'0 0.0
2018-May-22 07:30N 37°56' W 008°51'0 0.0
2018-May-22 07:00N 37°56' W 008°51'1 1.6
2018-May-22 06:31N 37°55' W 008°51'3 5.2
2018-May-22 05:59N 37°57' W 008°53'0 0.0
2018-May-22 05:29N 37°57' W 008°53'0 0.0
2018-May-22 04:59N 37°57' W 008°53'0 0.0
2018-May-22 04:29N 37°57' W 008°53'0 0.0
2018-May-22 03:59N 37°57' W 008°53'0 0.0
2018-May-22 03:29N 37°57' W 008°53'0 0.0
2018-May-22 02:59N 37°57' W 008°53'0 0.0
2018-May-22 02:29N 37°57' W 008°53'0 0.0
2018-May-22 01:59N 37°57' W 008°53'0 0.0
2018-May-22 01:30N 37°57' W 008°53'1 2.6
2018-May-22 01:00N 37°56' W 008°52'0 0.2
2018-May-22 00:30N 37°56' W 008°52'1 2.8
2018-May-22 00:00N 37°56' W 008°51'0 0.0
2018-May-21 23:30N 37°56' W 008°51'0 0.0
2018-May-21 23:00N 37°56' W 008°51'0 0.0
2018-May-21 22:30N 37°56' W 008°51'0 0.0
2018-May-21 22:00N 37°56' W 008°51'0 0.0
2018-May-21 21:30N 37°56' W 008°51'0 0.0
2018-May-21 21:00N 37°56' W 008°51'0 0.1
2018-May-21 20:30N 37°56' W 008°51'1 2.6
2018-May-21 20:00N 37°55' W 008°52'0 0.5
2018-May-21 19:30N 37°55' W 008°52'1 2.2
2018-May-21 18:58N 37°56' W 008°51'0 0.0
2018-May-21 18:28N 37°56' W 008°51'0 0.0
2018-May-21 17:58N 37°56' W 008°51'0 0.0
2018-May-21 17:28N 37°56' W 008°51'0 0.0
2018-May-21 16:58N 37°56' W 008°51'0 0.0
2018-May-21 16:28N 37°56' W 008°51'0 0.0
2018-May-21 15:58N 37°56' W 008°51'0 0.0
2018-May-21 15:28N 37°56' W 008°51'0 0.0
2018-May-21 15:01N 37°56' W 008°51'0 0.0
2018-May-21 14:25N 37°56' W 008°51'0 0.0
2018-May-21 13:58N 37°56' W 008°51'0 0.0
2018-May-21 13:28N 37°56' W 008°51'0 0.0
2018-May-21 13:01N 37°56' W 008°51'0 0.0
2018-May-21 12:28N 37°56' W 008°51'0 0.0
2018-May-21 11:58N 37°56' W 008°51'0 0.0
2018-May-21 11:29N 37°56' W 008°51'0 0.1
2018-May-21 11:00N 37°56' W 008°51'1 1.8
2018-May-21 10:30N 37°55' W 008°51'1 2.4
2018-May-21 10:00N 37°56' W 008°52'0 0.0
2018-May-21 09:30N 37°56' W 008°52'0 0.0
2018-May-21 09:00N 37°56' W 008°52'0 0.0
2018-May-21 08:30N 37°56' W 008°52'0 0.0
2018-May-21 08:00N 37°56' W 008°52'0 0.0
2018-May-21 07:30N 37°56' W 008°52'0 0.0
2018-May-21 07:00N 37°56' W 008°52'0 0.0
2018-May-21 06:30N 37°56' W 008°52'0 0.0
2018-May-21 06:00N 37°56' W 008°52'0 0.0
2018-May-21 05:30N 37°56' W 008°52'0 0.0
2018-May-21 05:00N 37°56' W 008°52'0 0.0
2018-May-21 04:30N 37°56' W 008°52'0 0.0
2018-May-21 04:00N 37°56' W 008°52'0 0.0
2018-May-21 03:30N 37°56' W 008°52'0 0.0
2018-May-21 03:00N 37°56' W 008°52'0 0.0
2018-May-21 02:30N 37°56' W 008°52'0 0.0
2018-May-21 02:00N 37°56' W 008°52'1 2.8
2018-May-21 01:30N 37°57' W 008°53'0 0.3
2018-May-21 01:00N 37°57' W 008°53'0 0.0
2018-May-21 00:30N 37°57' W 008°53'0 0.0
2018-May-21 00:00N 37°57' W 008°53'0 0.0
2018-May-20 23:30N 37°57' W 008°53'0 0.0
2018-May-20 23:00N 37°57' W 008°53'0 0.0
2018-May-20 22:30N 37°57' W 008°53'0 0.0
2018-May-20 22:00N 37°57' W 008°53'0 0.0
2018-May-20 21:30N 37°57' W 008°53'0 0.0
2018-May-20 21:00N 37°57' W 008°53'0 0.0
2018-May-20 20:30N 37°57' W 008°53'0 0.0
2018-May-20 20:00N 37°57' W 008°53'1 1.1
2018-May-20 19:31N 37°57' W 008°53'2 3.7
2018-May-20 19:00N 37°56' W 008°51'0 0.1
2018-May-20 18:30N 37°56' W 008°51'0 0.0
2018-May-20 18:00N 37°56' W 008°51'0 0.0
2018-May-20 17:30N 37°56' W 008°51'0 0.0
2018-May-20 17:00N 37°56' W 008°51'0 0.0
2018-May-20 16:30N 37°56' W 008°51'0 0.0
2018-May-20 16:00N 37°56' W 008°51'0 0.0
2018-May-20 15:30N 37°56' W 008°51'0 0.0
2018-May-20 15:00N 37°56' W 008°51'0 0.0
2018-May-20 14:30N 37°56' W 008°51'0 0.0
2018-May-20 14:00N 37°56' W 008°51'0 0.0
2018-May-20 13:30N 37°56' W 008°51'0 0.0
2018-May-20 13:00N 37°56' W 008°51'0 0.0
2018-May-20 12:30N 37°56' W 008°51'0 0.0
2018-May-20 12:01N 37°56' W 008°51'1 1.7
2018-May-20 11:31N 37°55' W 008°51'1 1.4
2018-May-20 10:58N 37°55' W 008°51'0 0.0
2018-May-20 10:28N 37°55' W 008°51'0 0.0
2018-May-20 09:58N 37°55' W 008°51'0 0.0
2018-May-20 09:28N 37°55' W 008°51'0 0.0
2018-May-20 08:58N 37°55' W 008°51'0 0.0
2018-May-20 08:28N 37°55' W 008°51'0 0.4
2018-May-20 08:01N 37°55' W 008°51'2 4.4
2018-May-20 07:28N 37°57' W 008°53'0 0.0
2018-May-20 06:55N 37°57' W 008°53'0 0.0
2018-May-20 06:28N 37°57' W 008°53'0 0.0
2018-May-20 05:58N 37°57' W 008°53'0 0.0
2018-May-20 05:28N 37°57' W 008°53'0 0.0
2018-May-20 04:58N 37°57' W 008°53'0 0.0
2018-May-20 04:28N 37°57' W 008°53'0 0.0
2018-May-20 03:58N 37°57' W 008°53'0 0.0
2018-May-20 03:28N 37°57' W 008°53'0 0.0
2018-May-20 02:58N 37°57' W 008°53'0 0.0
2018-May-20 02:28N 37°57' W 008°53'0 0.0
2018-May-20 01:58N 37°57' W 008°53'0 0.0
2018-May-20 01:28N 37°57' W 008°53'0 0.0
2018-May-20 00:58N 37°57' W 008°53'0 0.0
2018-May-20 00:28N 37°57' W 008°53'0 0.0
2018-May-19 23:58N 37°57' W 008°53'0 0.0
2018-May-19 23:28N 37°57' W 008°53'0 0.0
2018-May-19 22:58N 37°57' W 008°53'0 0.0
2018-May-19 22:28N 37°57' W 008°53'0 0.0
2018-May-19 21:58N 37°57' W 008°53'0 0.0
2018-May-19 21:28N 37°57' W 008°53'0 0.0
2018-May-19 20:58N 37°57' W 008°53'0 0.0
2018-May-19 20:30N 37°57' W 008°53'0 0.7
2018-May-19 20:00N 37°57' W 008°53'2 4.9
2018-May-19 19:30N 37°58' W 008°56'510.5
2018-May-19 19:00N 38°02' W 008°59'510.6
2018-May-19 18:30N 38°07' W 009°03'510.9
2018-May-19 18:00N 38°11' W 009°07'511.0
2018-May-19 17:30N 38°16' W 009°11'611.3
2018-May-19 17:00N 38°21' W 009°15'611.1
2018-May-19 16:30N 38°25' W 009°18'510.8
2018-May-19 16:00N 38°30' W 009°21'510.8
2018-May-19 15:30N 38°36' W 009°23'5 9.2
2018-May-19 15:00N 38°39' W 009°19'4 7.3
2018-May-19 14:30N 38°41' W 009°15'2 3.8
2018-May-19 14:00N 38°41' W 009°13'0 0.0
2018-May-19 13:27N 38°41' W 009°13'0 0.0
2018-May-19 12:57N 38°41' W 009°13'0 0.0
2018-May-19 12:03N 38°41' W 009°13'0 0.1
2018-May-19 11:57N 38°41' W 009°13'0 0.0
2018-May-19 11:18N 38°41' W 009°13'0 0.0
2018-May-19 09:51N 38°41' W 009°13'0 0.0
2018-May-19 09:27N 38°41' W 009°13'0 0.0
2018-May-19 08:36N 38°41' W 009°13'0 0.0
2018-May-19 08:27N 38°41' W 009°13'0 0.0
2018-May-19 07:54N 38°41' W 009°13'0 0.0
2018-May-19 07:27N 38°41' W 009°13'0 0.0
2018-May-19 06:33N 38°41' W 009°13'0 0.0
2018-May-19 06:06N 38°41' W 009°13'0 0.0
2018-May-19 05:51N 38°41' W 009°13'0 0.0
2018-May-19 05:30N 38°41' W 009°13'0 0.0
2018-May-19 04:57N 38°41' W 009°13'0 0.0
2018-May-19 04:18N 38°41' W 009°13'0 0.0
2018-May-19 04:00N 38°41' W 009°13'0 0.0
2018-May-19 03:00N 38°41' W 009°13'0 0.0
2018-May-19 02:03N 38°41' W 009°13'0 0.1
2018-May-19 01:57N 38°41' W 009°13'0 0.0
2018-May-19 01:09N 38°41' W 009°13'0 0.0
2018-May-19 01:00N 38°41' W 009°13'0 0.0
2018-May-19 00:30N 38°41' W 009°13'0 0.0
2018-May-18 23:27N 38°41' W 009°13'0 0.0
2018-May-18 22:57N 38°41' W 009°13'0 0.0
2018-May-18 22:20N 38°41' W 009°13'0 1.2
2018-May-18 22:00N 38°41' W 009°13'5 7.2
2018-May-18 21:21N 38°43' W 009°07'0 0.0
2018-May-18 20:51N 38°43' W 009°07'0 0.0
2018-May-18 20:27N 38°43' W 009°07'0 0.0
2018-May-18 20:00N 38°43' W 009°07'0 0.0
2018-May-18 18:51N 38°43' W 009°07'0 0.0
2018-May-18 18:27N 38°43' W 009°07'0 0.0
2018-May-18 18:00N 38°43' W 009°07'0 0.0
2018-May-18 17:03N 38°43' W 009°07'0 0.1
2018-May-18 17:00N 38°43' W 009°07'0 0.0
2018-May-18 15:33N 38°43' W 009°07'0 0.0
2018-May-18 15:27N 38°43' W 009°07'0 0.0
2018-May-18 14:51N 38°43' W 009°07'0 0.0
2018-May-18 14:27N 38°43' W 009°07'0 0.0
2018-May-18 13:24N 38°43' W 009°07'0 0.0
2018-May-18 13:00N 38°43' W 009°07'0 0.6
2018-May-18 12:31N 38°43' W 009°07'5 8.9
2018-May-18 11:59N 38°41' W 009°13'3 5.5
2018-May-18 11:29N 38°41' W 009°16'4 8.5
2018-May-18 11:00N 38°39' W 009°20'4 7.5
2018-May-18 10:30N 38°36' W 009°23'3 5.8
2018-May-18 10:00N 38°33' W 009°22'3 5.0
2018-May-18 09:30N 38°31' W 009°21'3 5.6
2018-May-18 09:00N 38°28' W 009°20'4 7.5
2018-May-18 08:27N 38°24' W 009°18'4 8.2
2018-May-18 08:00N 38°21' W 009°15'4 7.9
2018-May-18 07:30N 38°18' W 009°13'4 7.8
2018-May-18 07:00N 38°14' W 009°10'4 7.9
2018-May-18 06:30N 38°11' W 009°07'4 7.9
2018-May-18 06:00N 38°08' W 009°04'4 8.0
2018-May-18 05:30N 38°05' W 009°02'4 8.2
2018-May-18 05:00N 38°01' W 008°59'4 8.3
2018-May-18 04:30N 37°58' W 008°56'4 7.1
2018-May-18 04:00N 37°55' W 008°53'0 0.2
2018-May-18 03:29N 37°55' W 008°53'0 0.0
2018-May-18 02:59N 37°55' W 008°53'0 0.0
2018-May-18 02:29N 37°55' W 008°53'0 0.1
2018-May-18 01:59N 37°55' W 008°53'0 0.0
2018-May-18 01:29N 37°55' W 008°53'0 0.0
2018-May-18 00:59N 37°55' W 008°53'0 0.0
2018-May-18 00:29N 37°55' W 008°53'0 0.0
2018-May-17 23:59N 37°55' W 008°53'0 0.0
2018-May-17 23:29N 37°55' W 008°53'0 0.0
2018-May-17 22:59N 37°55' W 008°53'0 0.0
2018-May-17 22:29N 37°55' W 008°53'0 0.0
2018-May-17 21:59N 37°55' W 008°53'0 0.0
2018-May-17 21:29N 37°55' W 008°53'0 0.0
2018-May-17 20:59N 37°55' W 008°53'0 0.0
2018-May-17 20:29N 37°55' W 008°53'0 0.0
2018-May-17 19:59N 37°55' W 008°53'0 0.0
2018-May-17 19:29N 37°55' W 008°53'1 2.3
2018-May-17 19:01N 37°56' W 008°52'2 3.2
2018-May-17 18:28N 37°57' W 008°53'0 0.0
2018-May-17 17:58N 37°57' W 008°53'0 0.0
2018-May-17 17:28N 37°57' W 008°53'0 0.0
2018-May-17 16:58N 37°57' W 008°53'0 0.0
2018-May-17 16:28N 37°57' W 008°53'0 0.0
2018-May-17 15:58N 37°57' W 008°53'0 0.0
2018-May-17 15:28N 37°57' W 008°53'0 0.0
2018-May-17 14:55N 37°57' W 008°53'0 0.0
2018-May-17 14:28N 37°57' W 008°53'0 0.0
2018-May-17 13:58N 37°57' W 008°53'0 0.0
2018-May-17 13:28N 37°57' W 008°53'0 0.0
2018-May-17 12:58N 37°57' W 008°53'0 0.0
2018-May-17 12:28N 37°57' W 008°53'0 0.0
2018-May-17 11:58N 37°57' W 008°53'0 0.0
2018-May-17 11:28N 37°57' W 008°53'0 0.0
2018-May-17 10:58N 37°57' W 008°53'0 0.0
2018-May-17 10:28N 37°57' W 008°53'0 0.0
2018-May-17 09:52N 37°57' W 008°53'0 0.0
2018-May-17 09:28N 37°57' W 008°53'0 0.0
2018-May-17 08:58N 37°57' W 008°53'0 0.0
2018-May-17 08:28N 37°57' W 008°53'0 0.0
2018-May-17 07:58N 37°57' W 008°53'0 0.0
2018-May-17 07:28N 37°57' W 008°53'0 0.0
2018-May-17 06:58N 37°57' W 008°53'0 0.0
2018-May-17 06:28N 37°57' W 008°53'0 0.0
2018-May-17 05:58N 37°57' W 008°53'0 0.0
2018-May-17 05:28N 37°57' W 008°53'0 0.0
2018-May-17 04:58N 37°57' W 008°53'0 0.0
2018-May-17 04:28N 37°57' W 008°53'0 0.0
2018-May-17 04:01N 37°57' W 008°53'2 4.0
2018-May-17 03:30N 37°55' W 008°52'  

Dump ship's entire track history